sensor_id;sensor_type;location;lat;lon;timestamp;P1;durP1;ratioP1;P2;durP2;ratioP2
9409;SDS011;4744;52.576;13.568;2023-05-15T00:01:36;5.38;;;4.97;;
9409;SDS011;4744;52.576;13.568;2023-05-15T00:04:03;5.40;;;4.90;;
9409;SDS011;4744;52.576;13.568;2023-05-15T00:06:30;4.88;;;4.53;;
9409;SDS011;4744;52.576;13.568;2023-05-15T00:08:57;5.30;;;4.88;;
9409;SDS011;4744;52.576;13.568;2023-05-15T00:11:24;5.60;;;5.10;;
9409;SDS011;4744;52.576;13.568;2023-05-15T00:13:52;5.55;;;5.15;;
9409;SDS011;4744;52.576;13.568;2023-05-15T00:16:20;5.88;;;5.38;;
9409;SDS011;4744;52.576;13.568;2023-05-15T00:18:47;6.78;;;6.05;;
9409;SDS011;4744;52.576;13.568;2023-05-15T00:21:14;6.68;;;5.75;;
9409;SDS011;4744;52.576;13.568;2023-05-15T00:23:41;6.72;;;6.18;;
9409;SDS011;4744;52.576;13.568;2023-05-15T00:26:08;6.40;;;5.90;;
9409;SDS011;4744;52.576;13.568;2023-05-15T00:28:34;5.63;;;5.22;;
9409;SDS011;4744;52.576;13.568;2023-05-15T00:31:01;5.90;;;5.35;;
9409;SDS011;4744;52.576;13.568;2023-05-15T00:33:30;5.50;;;5.10;;
9409;SDS011;4744;52.576;13.568;2023-05-15T00:35:56;6.53;;;5.65;;
9409;SDS011;4744;52.576;13.568;2023-05-15T00:38:23;5.30;;;4.90;;
9409;SDS011;4744;52.576;13.568;2023-05-15T00:40:50;5.97;;;5.47;;
9409;SDS011;4744;52.576;13.568;2023-05-15T00:43:18;6.68;;;6.05;;
9409;SDS011;4744;52.576;13.568;2023-05-15T00:45:46;6.38;;;5.88;;
9409;SDS011;4744;52.576;13.568;2023-05-15T00:48:14;6.80;;;6.30;;
9409;SDS011;4744;52.576;13.568;2023-05-15T00:50:43;6.57;;;6.05;;
9409;SDS011;4744;52.576;13.568;2023-05-15T00:53:10;5.35;;;4.95;;
9409;SDS011;4744;52.576;13.568;2023-05-15T00:55:37;5.88;;;5.47;;
9409;SDS011;4744;52.576;13.568;2023-05-15T00:58:06;5.80;;;5.30;;
9409;SDS011;4744;52.576;13.568;2023-05-15T01:00:35;6.57;;;6.07;;
9409;SDS011;4744;52.576;13.568;2023-05-15T01:03:03;6.18;;;5.70;;
9409;SDS011;4744;52.576;13.568;2023-05-15T01:05:30;6.30;;;5.70;;
9409;SDS011;4744;52.576;13.568;2023-05-15T01:08:15;5.40;;;5.00;;
9409;SDS011;4744;52.576;13.568;2023-05-15T01:10:46;6.22;;;5.75;;
9409;SDS011;4744;52.576;13.568;2023-05-15T01:13:14;6.70;;;6.10;;
9409;SDS011;4744;52.576;13.568;2023-05-15T01:15:42;6.68;;;6.07;;
9409;SDS011;4744;52.576;13.568;2023-05-15T01:18:09;5.57;;;5.13;;
9409;SDS011;4744;52.576;13.568;2023-05-15T01:20:38;5.43;;;5.03;;
9409;SDS011;4744;52.576;13.568;2023-05-15T01:23:18;7.65;;;6.95;;
9409;SDS011;4744;52.576;13.568;2023-05-15T01:28:49;6.32;;;5.82;;
9409;SDS011;4744;52.576;13.568;2023-05-15T01:31:23;6.22;;;5.63;;
9409;SDS011;4744;52.576;13.568;2023-05-15T01:33:57;6.90;;;6.30;;
9409;SDS011;4744;52.576;13.568;2023-05-15T01:36:29;6.57;;;6.07;;
9409;SDS011;4744;52.576;13.568;2023-05-15T01:39:01;6.80;;;6.30;;
9409;SDS011;4744;52.576;13.568;2023-05-15T01:41:30;7.13;;;6.47;;
9409;SDS011;4744;52.576;13.568;2023-05-15T01:44:04;6.60;;;6.10;;
9409;SDS011;4744;52.576;13.568;2023-05-15T01:46:33;6.38;;;5.88;;
9409;SDS011;4744;52.576;13.568;2023-05-15T01:49:02;6.03;;;5.60;;
9409;SDS011;4744;52.576;13.568;2023-05-15T01:51:31;6.30;;;5.72;;
9409;SDS011;4744;52.576;13.568;2023-05-15T01:53:59;6.10;;;5.60;;
9409;SDS011;4744;52.576;13.568;2023-05-15T01:56:27;6.70;;;6.10;;
9409;SDS011;4744;52.576;13.568;2023-05-15T01:58:54;6.90;;;6.30;;
9409;SDS011;4744;52.576;13.568;2023-05-15T02:01:25;6.22;;;5.78;;
9409;SDS011;4744;52.576;13.568;2023-05-15T02:03:53;6.50;;;5.90;;
9409;SDS011;4744;52.576;13.568;2023-05-15T02:06:20;6.63;;;6.03;;
9409;SDS011;4744;52.576;13.568;2023-05-15T02:08:49;6.47;;;6.00;;
9409;SDS011;4744;52.576;13.568;2023-05-15T02:11:18;6.05;;;5.60;;
9409;SDS011;4744;52.576;13.568;2023-05-15T02:13:45;6.47;;;5.90;;
9409;SDS011;4744;52.576;13.568;2023-05-15T02:16:12;7.18;;;6.57;;
9409;SDS011;4744;52.576;13.568;2023-05-15T02:18:41;6.82;;;6.32;;
9409;SDS011;4744;52.576;13.568;2023-05-15T02:21:08;6.72;;;6.15;;
9409;SDS011;4744;52.576;13.568;2023-05-15T02:23:35;6.22;;;5.72;;
9409;SDS011;4744;52.576;13.568;2023-05-15T02:26:07;6.60;;;6.10;;
9409;SDS011;4744;52.576;13.568;2023-05-15T02:28:42;6.60;;;6.07;;
9409;SDS011;4744;52.576;13.568;2023-05-15T02:31:16;6.00;;;5.60;;
9409;SDS011;4744;52.576;13.568;2023-05-15T02:33:53;6.40;;;5.90;;
9409;SDS011;4744;52.576;13.568;2023-05-15T02:36:26;5.93;;;5.43;;
9409;SDS011;4744;52.576;13.568;2023-05-15T02:38:55;5.88;;;5.45;;
9409;SDS011;4744;52.576;13.568;2023-05-15T02:41:24;6.22;;;5.72;;
9409;SDS011;4744;52.576;13.568;2023-05-15T02:43:52;5.68;;;5.28;;
9409;SDS011;4744;52.576;13.568;2023-05-15T02:46:21;5.97;;;5.47;;
9409;SDS011;4744;52.576;13.568;2023-05-15T02:48:50;5.63;;;5.20;;
9409;SDS011;4744;52.576;13.568;2023-05-15T02:51:18;5.95;;;5.45;;
9409;SDS011;4744;52.576;13.568;2023-05-15T02:53:46;6.13;;;5.60;;
9409;SDS011;4744;52.576;13.568;2023-05-15T02:56:14;6.22;;;5.72;;
9409;SDS011;4744;52.576;13.568;2023-05-15T02:58:41;6.05;;;5.45;;
9409;SDS011;4744;52.576;13.568;2023-05-15T03:01:07;6.13;;;5.63;;
9409;SDS011;4744;52.576;13.568;2023-05-15T03:03:34;5.88;;;5.38;;
9409;SDS011;4744;52.576;13.568;2023-05-15T03:06:03;5.72;;;5.32;;
9409;SDS011;4744;52.576;13.568;2023-05-15T03:08:30;7.32;;;6.63;;
9409;SDS011;4744;52.576;13.568;2023-05-15T03:10:57;6.50;;;5.90;;
9409;SDS011;4744;52.576;13.568;2023-05-15T03:13:23;5.80;;;5.40;;
9409;SDS011;4744;52.576;13.568;2023-05-15T03:15:50;6.30;;;5.70;;
9409;SDS011;4744;52.576;13.568;2023-05-15T03:18:17;6.47;;;6.00;;
9409;SDS011;4744;52.576;13.568;2023-05-15T03:20:45;6.45;;;5.88;;
9409;SDS011;4744;52.576;13.568;2023-05-15T03:23:14;6.40;;;5.90;;
9409;SDS011;4744;52.576;13.568;2023-05-15T03:25:41;6.57;;;5.85;;
9409;SDS011;4744;52.576;13.568;2023-05-15T03:28:08;6.95;;;6.35;;
9409;SDS011;4744;52.576;13.568;2023-05-15T03:30:35;6.95;;;6.30;;
9409;SDS011;4744;52.576;13.568;2023-05-15T03:33:02;6.47;;;5.90;;
9409;SDS011;4744;52.576;13.568;2023-05-15T03:35:30;6.90;;;6.30;;
9409;SDS011;4744;52.576;13.568;2023-05-15T03:37:57;6.45;;;5.95;;
9409;SDS011;4744;52.576;13.568;2023-05-15T03:40:25;6.22;;;5.72;;
9409;SDS011;4744;52.576;13.568;2023-05-15T03:42:52;6.80;;;6.30;;
9409;SDS011;4744;52.576;13.568;2023-05-15T03:45:19;6.60;;;6.00;;
9409;SDS011;4744;52.576;13.568;2023-05-15T03:47:46;6.97;;;6.05;;
9409;SDS011;4744;52.576;13.568;2023-05-15T03:50:13;6.65;;;6.05;;
9409;SDS011;4744;52.576;13.568;2023-05-15T03:52:40;6.90;;;6.22;;
9409;SDS011;4744;52.576;13.568;2023-05-15T03:55:07;6.78;;;6.18;;
9409;SDS011;4744;52.576;13.568;2023-05-15T03:57:36;6.70;;;6.00;;
9409;SDS011;4744;52.576;13.568;2023-05-15T04:00:05;7.22;;;6.63;;
9409;SDS011;4744;52.576;13.568;2023-05-15T04:02:34;6.32;;;5.80;;
9409;SDS011;4744;52.576;13.568;2023-05-15T04:05:02;6.00;;;5.50;;
9409;SDS011;4744;52.576;13.568;2023-05-15T04:07:29;7.47;;;6.65;;
9409;SDS011;4744;52.576;13.568;2023-05-15T04:09:57;6.82;;;6.32;;
9409;SDS011;4744;52.576;13.568;2023-05-15T04:12:25;6.93;;;6.43;;
9409;SDS011;4744;52.576;13.568;2023-05-15T04:14:55;6.68;;;6.07;;
9409;SDS011;4744;52.576;13.568;2023-05-15T04:17:24;6.57;;;6.07;;
9409;SDS011;4744;52.576;13.568;2023-05-15T04:19:51;7.07;;;6.47;;
9409;SDS011;4744;52.576;13.568;2023-05-15T04:22:18;7.38;;;6.78;;
9409;SDS011;4744;52.576;13.568;2023-05-15T04:24:45;6.75;;;6.25;;
9409;SDS011;4744;52.576;13.568;2023-05-15T04:27:12;6.78;;;6.18;;
9409;SDS011;4744;52.576;13.568;2023-05-15T04:29:39;6.88;;;6.18;;
9409;SDS011;4744;52.576;13.568;2023-05-15T04:32:07;6.20;;;5.70;;
9409;SDS011;4744;52.576;13.568;2023-05-15T04:34:34;5.85;;;5.45;;
9409;SDS011;4744;52.576;13.568;2023-05-15T04:37:00;5.65;;;5.15;;
9409;SDS011;4744;52.576;13.568;2023-05-15T04:39:28;5.78;;;5.28;;
9409;SDS011;4744;52.576;13.568;2023-05-15T04:41:55;6.35;;;5.88;;
9409;SDS011;4744;52.576;13.568;2023-05-15T04:44:22;7.05;;;6.45;;
9409;SDS011;4744;52.576;13.568;2023-05-15T04:46:49;6.50;;;6.00;;
9409;SDS011;4744;52.576;13.568;2023-05-15T04:49:17;7.10;;;6.43;;
9409;SDS011;4744;52.576;13.568;2023-05-15T04:51:44;7.10;;;6.50;;
9409;SDS011;4744;52.576;13.568;2023-05-15T04:54:11;8.10;;;6.88;;
9409;SDS011;4744;52.576;13.568;2023-05-15T04:56:38;7.53;;;6.93;;
9409;SDS011;4744;52.576;13.568;2023-05-15T04:59:05;7.40;;;6.80;;
9409;SDS011;4744;52.576;13.568;2023-05-15T05:01:32;7.20;;;6.50;;
9409;SDS011;4744;52.576;13.568;2023-05-15T05:03:59;6.03;;;5.63;;
9409;SDS011;4744;52.576;13.568;2023-05-15T05:06:27;6.45;;;5.95;;
9409;SDS011;4744;52.576;13.568;2023-05-15T05:08:54;6.78;;;6.18;;
9409;SDS011;4744;52.576;13.568;2023-05-15T05:11:21;6.57;;;5.85;;
9409;SDS011;4744;52.576;13.568;2023-05-15T05:13:48;6.93;;;5.80;;
9409;SDS011;4744;52.576;13.568;2023-05-15T05:16:15;6.55;;;5.97;;
9409;SDS011;4744;52.576;13.568;2023-05-15T05:18:42;6.60;;;6.00;;
9409;SDS011;4744;52.576;13.568;2023-05-15T05:21:09;5.75;;;5.25;;
9409;SDS011;4744;52.576;13.568;2023-05-15T05:23:38;6.57;;;6.07;;
9409;SDS011;4744;52.576;13.568;2023-05-15T05:26:04;5.28;;;4.90;;
9409;SDS011;4744;52.576;13.568;2023-05-15T05:28:31;5.82;;;5.38;;
9409;SDS011;4744;52.576;13.568;2023-05-15T05:30:58;6.03;;;5.53;;
9409;SDS011;4744;52.576;13.568;2023-05-15T05:33:26;5.05;;;4.70;;
9409;SDS011;4744;52.576;13.568;2023-05-15T05:35:53;5.55;;;5.15;;
9409;SDS011;4744;52.576;13.568;2023-05-15T05:38:20;5.70;;;5.30;;
9409;SDS011;4744;52.576;13.568;2023-05-15T05:40:49;6.05;;;5.47;;
9409;SDS011;4744;52.576;13.568;2023-05-15T05:43:16;5.95;;;5.53;;
9409;SDS011;4744;52.576;13.568;2023-05-15T05:45:43;5.72;;;5.32;;
9409;SDS011;4744;52.576;13.568;2023-05-15T05:48:10;6.28;;;5.78;;
9409;SDS011;4744;52.576;13.568;2023-05-15T05:50:37;8.57;;;7.75;;
9409;SDS011;4744;52.576;13.568;2023-05-15T05:53:04;7.60;;;6.90;;
9409;SDS011;4744;52.576;13.568;2023-05-15T05:55:31;7.20;;;6.63;;
9409;SDS011;4744;52.576;13.568;2023-05-15T05:57:59;7.25;;;6.65;;
9409;SDS011;4744;52.576;13.568;2023-05-15T06:00:26;7.28;;;6.68;;
9409;SDS011;4744;52.576;13.568;2023-05-15T06:02:54;6.70;;;6.20;;
9409;SDS011;4744;52.576;13.568;2023-05-15T06:05:22;5.97;;;5.57;;
9409;SDS011;4744;52.576;13.568;2023-05-15T06:07:49;6.68;;;6.15;;
9409;SDS011;4744;52.576;13.568;2023-05-15T06:10:16;6.78;;;6.20;;
9409;SDS011;4744;52.576;13.568;2023-05-15T06:12:44;6.82;;;6.22;;
9409;SDS011;4744;52.576;13.568;2023-05-15T06:15:12;6.45;;;5.90;;
9409;SDS011;4744;52.576;13.568;2023-05-15T06:17:39;6.32;;;5.82;;
9409;SDS011;4744;52.576;13.568;2023-05-15T06:20:07;5.80;;;5.40;;
9409;SDS011;4744;52.576;13.568;2023-05-15T06:22:34;6.05;;;5.55;;
9409;SDS011;4744;52.576;13.568;2023-05-15T06:25:02;6.20;;;5.70;;
9409;SDS011;4744;52.576;13.568;2023-05-15T06:27:30;5.88;;;5.43;;
9409;SDS011;4744;52.576;13.568;2023-05-15T06:29:58;6.32;;;5.82;;
9409;SDS011;4744;52.576;13.568;2023-05-15T06:32:26;7.45;;;6.80;;
9409;SDS011;4744;52.576;13.568;2023-05-15T06:34:54;8.02;;;7.18;;
9409;SDS011;4744;52.576;13.568;2023-05-15T06:37:21;6.80;;;6.20;;
9409;SDS011;4744;52.576;13.568;2023-05-15T06:39:48;6.43;;;5.85;;
9409;SDS011;4744;52.576;13.568;2023-05-15T06:42:15;7.75;;;6.97;;
9409;SDS011;4744;52.576;13.568;2023-05-15T06:44:42;11.75;;;7.28;;
9409;SDS011;4744;52.576;13.568;2023-05-15T06:47:09;9.45;;;8.05;;
9409;SDS011;4744;52.576;13.568;2023-05-15T06:49:37;8.63;;;7.30;;
9409;SDS011;4744;52.576;13.568;2023-05-15T06:52:05;8.60;;;7.80;;
9409;SDS011;4744;52.576;13.568;2023-05-15T06:54:32;8.27;;;7.35;;
9409;SDS011;4744;52.576;13.568;2023-05-15T06:56:59;9.13;;;7.25;;
9409;SDS011;4744;52.576;13.568;2023-05-15T06:59:26;7.93;;;6.88;;
9409;SDS011;4744;52.576;13.568;2023-05-15T07:01:53;6.90;;;6.20;;
9409;SDS011;4744;52.576;13.568;2023-05-15T07:04:20;8.18;;;6.28;;
9409;SDS011;4744;52.576;13.568;2023-05-15T07:06:48;7.22;;;6.53;;
9409;SDS011;4744;52.576;13.568;2023-05-15T07:09:15;8.52;;;6.82;;
9409;SDS011;4744;52.576;13.568;2023-05-15T07:11:42;8.50;;;6.60;;
9409;SDS011;4744;52.576;13.568;2023-05-15T07:14:09;7.18;;;6.45;;
9409;SDS011;4744;52.576;13.568;2023-05-15T07:16:36;6.18;;;5.57;;
9409;SDS011;4744;52.576;13.568;2023-05-15T07:19:03;6.47;;;5.88;;
9409;SDS011;4744;52.576;13.568;2023-05-15T07:21:30;6.22;;;5.50;;
9409;SDS011;4744;52.576;13.568;2023-05-15T07:23:58;9.88;;;7.07;;
9409;SDS011;4744;52.576;13.568;2023-05-15T07:26:25;8.05;;;7.25;;
9409;SDS011;4744;52.576;13.568;2023-05-15T07:28:52;6.30;;;5.80;;
9409;SDS011;4744;52.576;13.568;2023-05-15T07:31:20;7.60;;;5.70;;
9409;SDS011;4744;52.576;13.568;2023-05-15T07:33:47;5.40;;;4.90;;
9409;SDS011;4744;52.576;13.568;2023-05-15T07:36:14;5.15;;;4.68;;
9409;SDS011;4744;52.576;13.568;2023-05-15T07:38:41;4.90;;;4.50;;
9409;SDS011;4744;52.576;13.568;2023-05-15T07:41:09;4.93;;;4.53;;
9409;SDS011;4744;52.576;13.568;2023-05-15T07:43:36;6.60;;;6.00;;
9409;SDS011;4744;52.576;13.568;2023-05-15T07:46:03;5.85;;;5.25;;
9409;SDS011;4744;52.576;13.568;2023-05-15T07:48:30;5.57;;;5.10;;
9409;SDS011;4744;52.576;13.568;2023-05-15T07:50:57;4.72;;;4.30;;
9409;SDS011;4744;52.576;13.568;2023-05-15T07:53:24;5.63;;;4.82;;
9409;SDS011;4744;52.576;13.568;2023-05-15T07:55:50;5.68;;;5.18;;
9409;SDS011;4744;52.576;13.568;2023-05-15T07:58:19;6.38;;;5.45;;
9409;SDS011;4744;52.576;13.568;2023-05-15T08:00:47;4.93;;;4.43;;
9409;SDS011;4744;52.576;13.568;2023-05-15T08:03:14;4.47;;;4.18;;
9409;SDS011;4744;52.576;13.568;2023-05-15T08:05:41;4.72;;;4.43;;
9409;SDS011;4744;52.576;13.568;2023-05-15T08:08:08;6.03;;;5.53;;
9409;SDS011;4744;52.576;13.568;2023-05-15T08:10:34;7.05;;;6.50;;
9409;SDS011;4744;52.576;13.568;2023-05-15T08:13:01;6.82;;;6.20;;
9409;SDS011;4744;52.576;13.568;2023-05-15T08:15:30;5.63;;;4.85;;
9409;SDS011;4744;52.576;13.568;2023-05-15T08:17:57;5.25;;;4.50;;
9409;SDS011;4744;52.576;13.568;2023-05-15T08:20:24;5.30;;;4.88;;
9409;SDS011;4744;52.576;13.568;2023-05-15T08:22:51;5.40;;;4.90;;
9409;SDS011;4744;52.576;13.568;2023-05-15T08:25:18;5.78;;;5.38;;
9409;SDS011;4744;52.576;13.568;2023-05-15T08:27:45;7.32;;;5.70;;
9409;SDS011;4744;52.576;13.568;2023-05-15T08:30:12;5.88;;;5.38;;
9409;SDS011;4744;52.576;13.568;2023-05-15T08:32:41;5.43;;;4.90;;
9409;SDS011;4744;52.576;13.568;2023-05-15T08:35:08;7.45;;;5.95;;
9409;SDS011;4744;52.576;13.568;2023-05-15T08:37:35;5.32;;;4.93;;
9409;SDS011;4744;52.576;13.568;2023-05-15T08:40:05;5.22;;;4.82;;
9409;SDS011;4744;52.576;13.568;2023-05-15T08:42:34;5.28;;;4.82;;
9409;SDS011;4744;52.576;13.568;2023-05-15T08:45:08;5.10;;;4.70;;
9409;SDS011;4744;52.576;13.568;2023-05-15T08:47:38;7.65;;;4.75;;
9409;SDS011;4744;52.576;13.568;2023-05-15T08:50:10;6.40;;;5.82;;
9409;SDS011;4744;52.576;13.568;2023-05-15T08:52:39;7.57;;;5.95;;
9409;SDS011;4744;52.576;13.568;2023-05-15T08:55:07;7.13;;;6.53;;
9409;SDS011;4744;52.576;13.568;2023-05-15T08:57:36;7.82;;;6.70;;
9409;SDS011;4744;52.576;13.568;2023-05-15T09:00:07;9.45;;;7.75;;
9409;SDS011;4744;52.576;13.568;2023-05-15T09:02:40;10.43;;;7.45;;
9409;SDS011;4744;52.576;13.568;2023-05-15T09:05:09;8.00;;;7.20;;
9409;SDS011;4744;52.576;13.568;2023-05-15T09:07:37;9.00;;;7.65;;
9409;SDS011;4744;52.576;13.568;2023-05-15T09:10:06;9.63;;;7.50;;
9409;SDS011;4744;52.576;13.568;2023-05-15T09:12:35;11.52;;;8.25;;
9409;SDS011;4744;52.576;13.568;2023-05-15T09:15:08;8.63;;;6.75;;
9409;SDS011;4744;52.576;13.568;2023-05-15T09:17:37;6.90;;;6.30;;
9409;SDS011;4744;52.576;13.568;2023-05-15T09:20:10;7.55;;;6.85;;
9409;SDS011;4744;52.576;13.568;2023-05-15T09:22:50;6.20;;;5.60;;
9409;SDS011;4744;52.576;13.568;2023-05-15T09:25:30;6.10;;;5.50;;
9409;SDS011;4744;52.576;13.568;2023-05-15T09:28:02;5.75;;;5.35;;
9409;SDS011;4744;52.576;13.568;2023-05-15T09:30:30;6.97;;;6.35;;
9409;SDS011;4744;52.576;13.568;2023-05-15T09:32:59;5.90;;;5.50;;
9409;SDS011;4744;52.576;13.568;2023-05-15T09:35:32;5.60;;;5.10;;
9409;SDS011;4744;52.576;13.568;2023-05-15T09:38:00;7.63;;;6.07;;
9409;SDS011;4744;52.576;13.568;2023-05-15T09:40:30;5.72;;;5.05;;
9409;SDS011;4744;52.576;13.568;2023-05-15T09:42:57;6.10;;;5.10;;
9409;SDS011;4744;52.576;13.568;2023-05-15T09:45:24;5.32;;;4.88;;
9409;SDS011;4744;52.576;13.568;2023-05-15T09:47:53;5.43;;;5.03;;
9409;SDS011;4744;52.576;13.568;2023-05-15T09:50:21;6.05;;;5.55;;
9409;SDS011;4744;52.576;13.568;2023-05-15T09:52:51;5.70;;;4.80;;
9409;SDS011;4744;52.576;13.568;2023-05-15T09:55:18;7.95;;;5.20;;
9409;SDS011;4744;52.576;13.568;2023-05-15T10:00:31;5.03;;;4.63;;
9409;SDS011;4744;52.576;13.568;2023-05-15T10:02:59;5.30;;;4.80;;
9409;SDS011;4744;52.576;13.568;2023-05-15T10:05:27;5.47;;;4.10;;
9409;SDS011;4744;52.576;13.568;2023-05-15T10:07:56;4.68;;;4.28;;
9409;SDS011;4744;52.576;13.568;2023-05-15T10:10:24;6.80;;;4.60;;
9409;SDS011;4744;52.576;13.568;2023-05-15T10:12:52;4.90;;;4.50;;
9409;SDS011;4744;52.576;13.568;2023-05-15T10:15:22;5.63;;;4.85;;
9409;SDS011;4744;52.576;13.568;2023-05-15T10:17:50;4.93;;;4.53;;
9409;SDS011;4744;52.576;13.568;2023-05-15T10:20:18;5.30;;;4.90;;
9409;SDS011;4744;52.576;13.568;2023-05-15T10:22:46;6.05;;;4.88;;
9409;SDS011;4744;52.576;13.568;2023-05-15T10:25:17;5.13;;;4.55;;
9409;SDS011;4744;52.576;13.568;2023-05-15T10:27:51;4.95;;;4.55;;
9409;SDS011;4744;52.576;13.568;2023-05-15T10:30:19;5.38;;;4.72;;
9409;SDS011;4744;52.576;13.568;2023-05-15T10:32:47;5.50;;;4.93;;
9409;SDS011;4744;52.576;13.568;2023-05-15T10:35:15;6.18;;;4.30;;
9409;SDS011;4744;52.576;13.568;2023-05-15T10:37:43;4.68;;;4.28;;
9409;SDS011;4744;52.576;13.568;2023-05-15T10:40:12;4.68;;;4.25;;
9409;SDS011;4744;52.576;13.568;2023-05-15T10:42:43;4.78;;;4.38;;
9409;SDS011;4744;52.576;13.568;2023-05-15T10:45:11;5.13;;;4.40;;
9409;SDS011;4744;52.576;13.568;2023-05-15T10:47:39;3.72;;;3.42;;
9409;SDS011;4744;52.576;13.568;2023-05-15T10:50:08;4.28;;;3.97;;
9409;SDS011;4744;52.576;13.568;2023-05-15T10:52:40;4.50;;;4.10;;
9409;SDS011;4744;52.576;13.568;2023-05-15T10:55:08;4.35;;;3.95;;
9409;SDS011;4744;52.576;13.568;2023-05-15T10:57:39;3.80;;;3.22;;
9409;SDS011;4744;52.576;13.568;2023-05-15T11:00:24;3.80;;;3.60;;
9409;SDS011;4744;52.576;13.568;2023-05-15T11:02:52;4.40;;;3.13;;
9409;SDS011;4744;52.576;13.568;2023-05-15T11:05:21;4.07;;;3.42;;
9409;SDS011;4744;52.576;13.568;2023-05-15T11:10:51;3.25;;;3.05;;
9409;SDS011;4744;52.576;13.568;2023-05-15T11:13:20;3.45;;;3.17;;
9409;SDS011;4744;52.576;13.568;2023-05-15T11:15:47;4.10;;;3.33;;
9409;SDS011;4744;52.576;13.568;2023-05-15T11:18:14;3.50;;;3.20;;
9409;SDS011;4744;52.576;13.568;2023-05-15T11:20:42;3.30;;;3.00;;
9409;SDS011;4744;52.576;13.568;2023-05-15T11:23:36;2.75;;;2.55;;
9409;SDS011;4744;52.576;13.568;2023-05-15T11:26:07;4.00;;;2.90;;
9409;SDS011;4744;52.576;13.568;2023-05-15T11:28:45;2.83;;;2.47;;
9409;SDS011;4744;52.576;13.568;2023-05-15T11:31:12;2.80;;;2.60;;
9409;SDS011;4744;52.576;13.568;2023-05-15T11:33:42;3.00;;;2.80;;
9409;SDS011;4744;52.576;13.568;2023-05-15T11:36:09;2.25;;;2.15;;
9409;SDS011;4744;52.576;13.568;2023-05-15T11:38:42;2.30;;;2.20;;
9409;SDS011;4744;52.576;13.568;2023-05-15T11:41:16;2.88;;;2.33;;
9409;SDS011;4744;52.576;13.568;2023-05-15T11:43:46;2.55;;;2.35;;
9409;SDS011;4744;52.576;13.568;2023-05-15T11:46:13;2.17;;;2.08;;
9409;SDS011;4744;52.576;13.568;2023-05-15T11:48:42;1.95;;;1.85;;
9409;SDS011;4744;52.576;13.568;2023-05-15T11:51:14;3.40;;;2.08;;
9409;SDS011;4744;52.576;13.568;2023-05-15T11:53:42;1.98;;;1.88;;
9409;SDS011;4744;52.576;13.568;2023-05-15T11:56:11;1.70;;;1.60;;
9409;SDS011;4744;52.576;13.568;2023-05-15T11:58:42;1.80;;;1.70;;
9409;SDS011;4744;52.576;13.568;2023-05-15T12:01:10;2.08;;;1.90;;
9409;SDS011;4744;52.576;13.568;2023-05-15T12:03:39;2.00;;;1.90;;
9409;SDS011;4744;52.576;13.568;2023-05-15T12:06:07;2.10;;;2.00;;
9409;SDS011;4744;52.576;13.568;2023-05-15T12:08:36;2.38;;;2.17;;
9409;SDS011;4744;52.576;13.568;2023-05-15T12:11:03;3.67;;;1.90;;
9409;SDS011;4744;52.576;13.568;2023-05-15T12:13:33;1.95;;;1.80;;
9409;SDS011;4744;52.576;13.568;2023-05-15T12:16:00;2.60;;;2.03;;
9409;SDS011;4744;52.576;13.568;2023-05-15T12:18:30;2.15;;;2.00;;
9409;SDS011;4744;52.576;13.568;2023-05-15T12:20:57;2.28;;;1.92;;
9409;SDS011;4744;52.576;13.568;2023-05-15T12:23:25;2.20;;;1.90;;
9409;SDS011;4744;52.576;13.568;2023-05-15T12:25:54;1.63;;;1.60;;
9409;SDS011;4744;52.576;13.568;2023-05-15T12:28:24;4.13;;;1.70;;
9409;SDS011;4744;52.576;13.568;2023-05-15T12:30:51;2.22;;;1.90;;
9409;SDS011;4744;52.576;13.568;2023-05-15T12:33:19;3.22;;;1.67;;
9409;SDS011;4744;52.576;13.568;2023-05-15T12:35:53;1.90;;;1.80;;
9409;SDS011;4744;52.576;13.568;2023-05-15T12:38:21;1.80;;;1.70;;
9409;SDS011;4744;52.576;13.568;2023-05-15T12:40:50;2.10;;;2.00;;
9409;SDS011;4744;52.576;13.568;2023-05-15T12:43:18;1.80;;;1.70;;
9409;SDS011;4744;52.576;13.568;2023-05-15T12:45:45;1.83;;;1.70;;
9409;SDS011;4744;52.576;13.568;2023-05-15T12:48:17;1.90;;;1.80;;
9409;SDS011;4744;52.576;13.568;2023-05-15T12:50:44;2.72;;;1.70;;
9409;SDS011;4744;52.576;13.568;2023-05-15T12:53:13;1.90;;;1.80;;
9409;SDS011;4744;52.576;13.568;2023-05-15T12:55:43;2.08;;;1.92;;
9409;SDS011;4744;52.576;13.568;2023-05-15T12:58:11;1.90;;;1.80;;
9409;SDS011;4744;52.576;13.568;2023-05-15T13:00:46;2.20;;;2.10;;
9409;SDS011;4744;52.576;13.568;2023-05-15T13:03:17;2.88;;;1.95;;
9409;SDS011;4744;52.576;13.568;2023-05-15T13:05:46;2.22;;;2.00;;
9409;SDS011;4744;52.576;13.568;2023-05-15T13:08:15;1.90;;;1.80;;
9409;SDS011;4744;52.576;13.568;2023-05-15T13:10:43;2.55;;;2.00;;
9409;SDS011;4744;52.576;13.568;2023-05-15T13:13:11;2.33;;;1.67;;
9409;SDS011;4744;52.576;13.568;2023-05-15T13:15:41;1.90;;;1.80;;
9409;SDS011;4744;52.576;13.568;2023-05-15T13:18:08;2.67;;;2.45;;
9409;SDS011;4744;52.576;13.568;2023-05-15T13:20:38;5.25;;;1.80;;
9409;SDS011;4744;52.576;13.568;2023-05-15T13:23:10;3.53;;;1.40;;
9409;SDS011;4744;52.576;13.568;2023-05-15T13:25:40;4.20;;;1.33;;
9409;SDS011;4744;52.576;13.568;2023-05-15T13:28:11;2.78;;;1.08;;
9409;SDS011;4744;52.576;13.568;2023-05-15T13:30:39;3.08;;;1.25;;
9409;SDS011;4744;52.576;13.568;2023-05-15T13:33:10;1.73;;;1.40;;
9409;SDS011;4744;52.576;13.568;2023-05-15T13:35:38;1.88;;;1.50;;
9409;SDS011;4744;52.576;13.568;2023-05-15T13:38:07;2.00;;;1.80;;
9409;SDS011;4744;52.576;13.568;2023-05-15T13:40:35;2.67;;;1.50;;
9409;SDS011;4744;52.576;13.568;2023-05-15T13:43:03;2.13;;;1.65;;
9409;SDS011;4744;52.576;13.568;2023-05-15T13:45:31;1.90;;;1.80;;
9409;SDS011;4744;52.576;13.568;2023-05-15T13:47:58;2.08;;;1.88;;
9409;SDS011;4744;52.576;13.568;2023-05-15T13:50:25;3.13;;;1.85;;
9409;SDS011;4744;52.576;13.568;2023-05-15T13:52:52;2.10;;;2.00;;
9409;SDS011;4744;52.576;13.568;2023-05-15T13:55:19;1.90;;;1.80;;
9409;SDS011;4744;52.576;13.568;2023-05-15T13:57:47;2.65;;;2.08;;
9409;SDS011;4744;52.576;13.568;2023-05-15T14:00:15;4.38;;;2.45;;
9409;SDS011;4744;52.576;13.568;2023-05-15T14:02:43;2.30;;;2.10;;
9409;SDS011;4744;52.576;13.568;2023-05-15T14:05:11;2.78;;;2.60;;
9409;SDS011;4744;52.576;13.568;2023-05-15T14:07:39;2.40;;;2.30;;
9409;SDS011;4744;52.576;13.568;2023-05-15T14:10:07;2.90;;;2.70;;
9409;SDS011;4744;52.576;13.568;2023-05-15T14:12:35;3.67;;;2.47;;
9409;SDS011;4744;52.576;13.568;2023-05-15T14:15:03;3.00;;;2.70;;
9409;SDS011;4744;52.576;13.568;2023-05-15T14:17:31;3.38;;;2.67;;
9409;SDS011;4744;52.576;13.568;2023-05-15T14:19:59;2.53;;;2.42;;
9409;SDS011;4744;52.576;13.568;2023-05-15T14:22:26;2.85;;;2.65;;
9409;SDS011;4744;52.576;13.568;2023-05-15T14:24:53;5.30;;;2.97;;
9409;SDS011;4744;52.576;13.568;2023-05-15T14:27:19;2.90;;;2.70;;
9409;SDS011;4744;52.576;13.568;2023-05-15T14:29:46;3.42;;;3.22;;
9409;SDS011;4744;52.576;13.568;2023-05-15T14:32:14;4.20;;;3.10;;
9409;SDS011;4744;52.576;13.568;2023-05-15T14:34:42;3.53;;;3.22;;
9409;SDS011;4744;52.576;13.568;2023-05-15T14:37:09;3.25;;;3.05;;
9409;SDS011;4744;52.576;13.568;2023-05-15T14:39:36;3.15;;;2.95;;
9409;SDS011;4744;52.576;13.568;2023-05-15T14:42:03;3.42;;;3.13;;
9409;SDS011;4744;52.576;13.568;2023-05-15T14:44:31;2.95;;;2.75;;
9409;SDS011;4744;52.576;13.568;2023-05-15T14:47:04;3.05;;;2.85;;
9409;SDS011;4744;52.576;13.568;2023-05-15T14:49:32;3.95;;;3.45;;
9409;SDS011;4744;52.576;13.568;2023-05-15T14:52:01;3.65;;;3.35;;
9409;SDS011;4744;52.576;13.568;2023-05-15T14:54:28;3.60;;;3.30;;
9409;SDS011;4744;52.576;13.568;2023-05-15T14:56:56;3.30;;;3.10;;
9409;SDS011;4744;52.576;13.568;2023-05-15T14:59:23;3.60;;;3.30;;
9409;SDS011;4744;52.576;13.568;2023-05-15T15:01:50;3.83;;;3.53;;
9409;SDS011;4744;52.576;13.568;2023-05-15T15:04:17;4.05;;;3.70;;
9409;SDS011;4744;52.576;13.568;2023-05-15T15:06:45;3.30;;;3.10;;
9409;SDS011;4744;52.576;13.568;2023-05-15T15:09:13;3.50;;;3.20;;
9409;SDS011;4744;52.576;13.568;2023-05-15T15:11:40;3.10;;;2.90;;
9409;SDS011;4744;52.576;13.568;2023-05-15T15:14:07;3.22;;;2.97;;
9409;SDS011;4744;52.576;13.568;2023-05-15T15:16:34;3.53;;;3.22;;